createdAt,value
2017-12-19T00:01:54.968Z,0.15
2017-12-19T00:04:22.549Z,0.13
2017-12-19T00:06:50.211Z,0.13
2017-12-19T00:09:17.779Z,0.12
2017-12-19T00:11:45.336Z,0.16
2017-12-19T00:14:12.996Z,0.17
2017-12-19T00:16:40.544Z,0.17
2017-12-19T00:19:08.100Z,0.19
2017-12-19T00:21:35.750Z,0.21
2017-12-19T00:24:03.286Z,0.23
2017-12-19T00:26:31.275Z,0.24
2017-12-19T00:28:58.822Z,0.26
2017-12-19T00:31:26.451Z,0.25
2017-12-19T00:33:54.038Z,0.24
2017-12-19T00:36:21.578Z,0.21
2017-12-19T00:38:49.159Z,0.17
2017-12-19T00:41:16.753Z,0.17
2017-12-19T00:43:44.339Z,0.17
2017-12-19T00:46:11.956Z,0.18
2017-12-19T00:48:39.565Z,0.20
2017-12-19T00:51:07.157Z,0.19
2017-12-19T00:53:34.754Z,0.24
2017-12-19T00:56:02.795Z,0.27
2017-12-19T00:58:30.353Z,0.28
2017-12-19T01:00:57.939Z,0.24
2017-12-19T01:03:25.511Z,0.22
2017-12-19T01:05:53.112Z,0.17
2017-12-19T01:08:20.726Z,0.15
2017-12-19T01:10:48.286Z,0.13
2017-12-19T01:13:15.855Z,0.12
2017-12-19T01:15:43.384Z,0.12
2017-12-19T01:18:10.936Z,0.11
2017-12-19T01:20:38.561Z,0.10
2017-12-19T01:23:06.103Z,0.07
2017-12-19T01:25:34.184Z,0.06
2017-12-19T01:28:01.790Z,0.05
2017-12-19T01:30:29.884Z,0.06
2017-12-19T01:32:57.443Z,0.06
2017-12-19T01:35:24.994Z,0.09
2017-12-19T01:37:52.551Z,0.08
2017-12-19T01:40:20.090Z,0.10
2017-12-19T01:42:47.636Z,0.13
2017-12-19T01:45:15.283Z,0.09
2017-12-19T01:47:42.870Z,0.05
2017-12-19T01:50:10.408Z,0.03
2017-12-19T01:52:38.000Z,0.01
2017-12-19T01:55:05.582Z,0.05
2017-12-19T01:57:33.148Z,0.05
2017-12-19T02:00:00.730Z,0.07
2017-12-19T02:02:28.400Z,0.10
2017-12-19T02:04:56.384Z,0.09
2017-12-19T02:07:23.993Z,0.07
2017-12-19T02:09:51.541Z,0.05
2017-12-19T02:12:19.128Z,0.05
2017-12-19T02:14:46.715Z,0.08
2017-12-19T02:17:14.283Z,0.08
2017-12-19T02:19:41.853Z,0.05
2017-12-19T02:22:09.430Z,0.02
2017-12-19T02:24:36.988Z,0.00
2017-12-19T02:27:04.514Z,0.04
2017-12-19T02:29:32.085Z,0.04
2017-12-19T02:31:59.627Z,0.02
2017-12-19T02:34:27.607Z,-0.04
2017-12-19T02:36:55.186Z,-0.07
2017-12-19T02:39:22.721Z,-0.04
2017-12-19T02:41:50.295Z,-0.03
2017-12-19T02:44:17.872Z,-0.05
2017-12-19T02:46:45.439Z,-0.06
2017-12-19T02:49:12.980Z,-0.08
2017-12-19T02:51:41.023Z,-0.09
2017-12-19T02:54:08.586Z,-0.08
2017-12-19T02:56:36.146Z,-0.10
2017-12-19T02:59:03.812Z,-0.11
2017-12-19T03:01:31.381Z,-0.12
2017-12-19T03:03:59.412Z,-0.10
2017-12-19T03:06:26.966Z,-0.04
2017-12-19T03:08:54.538Z,-0.04
2017-12-19T03:11:22.118Z,-0.07
2017-12-19T03:13:49.739Z,-0.08
2017-12-19T03:16:17.600Z,-0.11
2017-12-19T03:18:45.162Z,-0.08
2017-12-19T03:21:12.701Z,-0.09
2017-12-19T03:23:40.348Z,-0.07
2017-12-19T03:26:07.882Z,-0.08
2017-12-19T03:28:35.704Z,-0.08
2017-12-19T03:31:03.286Z,-0.07
2017-12-19T03:33:31.159Z,-0.07
2017-12-19T03:35:58.776Z,-0.09
2017-12-19T03:38:26.328Z,-0.09
2017-12-19T03:40:54.234Z,-0.08
2017-12-19T03:43:21.770Z,-0.08
2017-12-19T03:45:49.314Z,-0.09
2017-12-19T03:48:16.948Z,-0.10
2017-12-19T03:50:44.512Z,-0.07
2017-12-19T03:53:12.074Z,-0.03
2017-12-19T03:55:39.626Z,-0.01
2017-12-19T03:58:07.172Z,-0.03
2017-12-19T04:00:34.736Z,-0.03
2017-12-19T04:03:02.292Z,-0.03
2017-12-19T04:05:30.136Z,-0.04
2017-12-19T04:07:57.682Z,-0.03
2017-12-19T04:10:25.260Z,0.00
2017-12-19T04:12:52.814Z,0.05
2017-12-19T04:15:20.418Z,0.03
2017-12-19T04:17:47.987Z,-0.02
2017-12-19T04:20:15.535Z,-0.07
2017-12-19T04:22:43.424Z,-0.07
2017-12-19T04:25:10.964Z,-0.09
2017-12-19T04:27:38.504Z,-0.06
2017-12-19T04:30:06.161Z,-0.02
2017-12-19T04:32:33.673Z,0.01
2017-12-19T04:35:01.254Z,0.02
2017-12-19T04:37:28.889Z,0.00
2017-12-19T04:39:56.747Z,-0.02
2017-12-19T04:42:24.380Z,-0.02
2017-12-19T04:44:51.940Z,-0.09
2017-12-19T04:47:19.533Z,-0.07
2017-12-19T04:49:47.119Z,-0.07
2017-12-19T04:52:14.715Z,-0.05
2017-12-19T04:54:42.272Z,-0.04
2017-12-19T04:57:09.871Z,-0.01
2017-12-19T04:59:37.430Z,-0.04
2017-12-19T05:02:04.963Z,-0.06
2017-12-19T05:04:32.690Z,-0.07
2017-12-19T05:07:00.249Z,-0.04
2017-12-19T05:09:28.195Z,-0.04
2017-12-19T05:11:55.754Z,-0.03
2017-12-19T05:14:23.370Z,-0.04
2017-12-19T05:16:50.903Z,-0.06
2017-12-19T05:19:18.436Z,-0.05
2017-12-19T05:21:46.056Z,-0.04
2017-12-19T05:24:13.652Z,-0.05
2017-12-19T05:26:41.522Z,-0.04
2017-12-19T05:29:09.124Z,0.00
2017-12-19T05:31:36.817Z,0.02
2017-12-19T05:34:04.396Z,0.04
2017-12-19T05:36:32.040Z,0.02
2017-12-19T05:38:59.603Z,0.01
2017-12-19T05:41:27.159Z,0.00
2017-12-19T05:43:54.718Z,-0.03
2017-12-19T05:46:22.304Z,-0.03
2017-12-19T05:48:49.851Z,-0.03
2017-12-19T05:51:17.440Z,-0.04
2017-12-19T05:53:45.046Z,-0.06
2017-12-19T05:56:12.748Z,-0.08
2017-12-19T05:58:40.388Z,-0.09
2017-12-19T06:01:08.014Z,-0.10
2017-12-19T06:03:35.690Z,-0.12
2017-12-19T06:06:03.260Z,-0.11
2017-12-19T06:08:30.844Z,-0.11
2017-12-19T06:10:58.399Z,-0.08
2017-12-19T06:13:25.935Z,-0.05
2017-12-19T06:15:53.575Z,-0.02
2017-12-19T06:18:21.130Z,0.00
2017-12-19T06:20:48.953Z,0.05
2017-12-19T06:23:16.495Z,0.08
2017-12-19T06:25:44.939Z,0.09
2017-12-19T06:28:12.494Z,0.05
2017-12-19T06:30:40.062Z,0.04
2017-12-19T06:33:08.153Z,0.02
2017-12-19T06:35:35.732Z,0.05
2017-12-19T06:38:03.277Z,0.07
2017-12-19T06:40:30.991Z,0.07
2017-12-19T06:42:58.534Z,0.10
2017-12-19T06:45:26.364Z,0.11
2017-12-19T06:47:53.905Z,0.15
2017-12-19T06:50:21.444Z,0.16
2017-12-19T06:52:49.013Z,0.14
2017-12-19T06:55:16.556Z,0.15
2017-12-19T06:57:44.126Z,0.09
2017-12-19T07:00:11.767Z,0.05
2017-12-19T07:02:39.761Z,0.06
2017-12-19T07:05:07.310Z,0.04
2017-12-19T07:07:34.866Z,0.04
2017-12-19T07:10:02.387Z,0.05
2017-12-19T07:12:29.890Z,0.01
2017-12-19T07:14:57.425Z,-0.02
2017-12-19T07:17:24.950Z,0.00
2017-12-19T07:19:54.109Z,0.03
2017-12-19T07:22:21.692Z,0.02
2017-12-19T07:24:49.236Z,0.01
2017-12-19T07:27:17.028Z,0.00
2017-12-19T07:29:44.552Z,0.01
2017-12-19T07:32:12.088Z,0.03
2017-12-19T07:34:39.606Z,0.04
2017-12-19T07:37:07.106Z,0.03
2017-12-19T07:39:35.420Z,0.02
2017-12-19T07:42:02.977Z,0.04
2017-12-19T07:44:30.826Z,0.07
2017-12-19T07:46:58.356Z,0.06
2017-12-19T07:49:25.909Z,0.10
2017-12-19T07:51:53.573Z,0.12
2017-12-19T07:54:21.121Z,0.12
2017-12-19T07:56:49.312Z,0.17
2017-12-19T07:59:16.852Z,0.19
2017-12-19T08:01:44.403Z,0.22
2017-12-19T08:04:11.993Z,0.24
2017-12-19T08:06:39.553Z,0.26
2017-12-19T08:09:07.108Z,0.28
2017-12-19T08:11:34.677Z,0.28
2017-12-19T08:14:02.235Z,0.28
2017-12-19T08:16:29.805Z,0.29
2017-12-19T08:18:57.376Z,0.33
2017-12-19T08:21:24.985Z,0.35
2017-12-19T08:23:52.528Z,0.30
2017-12-19T08:26:20.459Z,0.33
2017-12-19T08:28:48.004Z,0.36
2017-12-19T08:31:15.545Z,0.39
2017-12-19T08:33:43.110Z,0.40
2017-12-19T08:36:10.655Z,0.44
2017-12-19T08:38:38.236Z,0.46
2017-12-19T08:41:05.770Z,0.48
2017-12-19T08:43:33.334Z,0.53
2017-12-19T08:46:00.916Z,0.56
2017-12-19T08:48:28.460Z,0.58
2017-12-19T08:50:56.270Z,0.62
2017-12-19T08:53:23.823Z,0.64
2017-12-19T08:55:51.363Z,0.67
2017-12-19T08:58:18.933Z,0.65
2017-12-19T09:00:46.507Z,0.69
2017-12-19T09:03:14.078Z,0.71
2017-12-19T09:05:41.680Z,0.73
2017-12-19T09:08:09.263Z,0.73
2017-12-19T09:10:36.827Z,0.75
2017-12-19T09:13:04.379Z,0.81
2017-12-19T09:15:31.981Z,0.86
2017-12-19T09:17:59.588Z,0.91
2017-12-19T09:20:27.143Z,0.95
2017-12-19T09:22:54.766Z,0.93
2017-12-19T09:25:22.412Z,0.90
2017-12-19T09:27:50.258Z,0.99
2017-12-19T09:30:17.816Z,1.01
2017-12-19T09:32:45.370Z,1.02
2017-12-19T09:35:12.893Z,1.06
2017-12-19T09:37:40.439Z,1.11
2017-12-19T09:40:08.364Z,1.16
2017-12-19T09:42:35.944Z,1.18
2017-12-19T09:45:03.481Z,1.18
2017-12-19T09:47:31.074Z,1.22
2017-12-19T09:49:58.886Z,1.24
2017-12-19T09:52:26.496Z,1.24
2017-12-19T09:54:54.039Z,1.27
2017-12-19T09:57:21.865Z,1.29
2017-12-19T09:59:49.430Z,1.32
2017-12-19T10:02:16.988Z,1.34
2017-12-19T10:04:44.598Z,1.36
2017-12-19T10:07:12.154Z,1.38
2017-12-19T10:09:39.770Z,1.43
2017-12-19T10:12:07.530Z,1.47
2017-12-19T10:14:35.505Z,1.51
2017-12-19T10:17:03.058Z,1.52
2017-12-19T10:19:30.620Z,1.55
2017-12-19T10:21:58.184Z,1.53
2017-12-19T10:24:25.737Z,1.60
2017-12-19T10:26:53.296Z,1.67
2017-12-19T10:29:20.850Z,1.70
2017-12-19T10:31:48.482Z,1.75
2017-12-19T10:34:16.027Z,1.76
2017-12-19T10:36:43.584Z,1.77
2017-12-19T10:39:11.140Z,1.76
2017-12-19T10:41:38.680Z,1.78
2017-12-19T10:44:06.229Z,1.78
2017-12-19T10:46:33.764Z,1.78
2017-12-19T10:49:01.366Z,1.78
2017-12-19T10:51:28.952Z,1.80
2017-12-19T10:53:56.490Z,1.83
2017-12-19T10:56:24.105Z,1.85
2017-12-19T10:58:51.642Z,1.90
2017-12-19T11:01:19.606Z,1.89
2017-12-19T11:03:47.171Z,1.94
2017-12-19T11:06:14.730Z,1.97
2017-12-19T11:08:42.336Z,2.00
2017-12-19T11:11:09.878Z,1.97
2017-12-19T11:13:37.464Z,1.99
2017-12-19T11:16:05.010Z,2.01
2017-12-19T11:18:32.560Z,2.02
2017-12-19T11:21:00.119Z,2.07
2017-12-19T11:23:27.649Z,2.11
2017-12-19T11:25:55.205Z,2.16
2017-12-19T11:28:22.766Z,2.19
2017-12-19T11:30:50.338Z,2.23
2017-12-19T11:33:17.875Z,2.15
2017-12-19T11:35:45.408Z,2.18
2017-12-19T11:38:12.954Z,2.21
2017-12-19T11:40:40.538Z,2.21
2017-12-19T11:43:08.133Z,2.20
2017-12-19T11:45:35.708Z,2.22
2017-12-19T11:48:03.308Z,2.24
2017-12-19T11:50:30.876Z,2.28
2017-12-19T11:52:58.445Z,2.26
2017-12-19T11:55:26.012Z,2.30
2017-12-19T11:57:53.576Z,2.27
2017-12-19T12:00:21.472Z,2.32
2017-12-19T12:02:49.008Z,2.35
2017-12-19T12:05:16.551Z,2.42
2017-12-19T12:07:44.136Z,2.46
2017-12-19T12:10:11.696Z,2.43
2017-12-19T12:12:39.296Z,2.44
2017-12-19T12:15:06.848Z,2.46
2017-12-19T12:17:34.420Z,2.43
2017-12-19T12:20:01.996Z,2.43
2017-12-19T12:22:29.549Z,2.40
2017-12-19T12:24:57.102Z,2.42
2017-12-19T12:27:24.637Z,2.40
2017-12-19T12:29:52.447Z,2.38
2017-12-19T12:32:20.013Z,2.39
2017-12-19T12:34:47.568Z,2.45
2017-12-19T12:37:15.172Z,2.48
2017-12-19T12:39:42.777Z,2.46
2017-12-19T12:42:10.347Z,2.43
2017-12-19T12:44:37.917Z,2.37
2017-12-19T12:47:05.783Z,2.34
2017-12-19T12:49:33.323Z,2.29
2017-12-19T12:52:00.844Z,2.31
2017-12-19T12:54:28.424Z,2.31
2017-12-19T12:56:55.962Z,2.35
2017-12-19T12:59:23.529Z,2.38
2017-12-19T13:01:51.094Z,2.38
2017-12-19T13:04:18.696Z,2.41
2017-12-19T13:06:46.282Z,2.43
2017-12-19T13:09:13.799Z,2.43
2017-12-19T13:11:41.419Z,2.45
2017-12-19T13:14:08.971Z,2.40
2017-12-19T13:16:36.530Z,2.43
2017-12-19T13:19:04.071Z,2.47
2017-12-19T13:21:31.610Z,2.45
2017-12-19T13:23:59.174Z,2.45
2017-12-19T13:26:26.787Z,2.46
2017-12-19T13:28:54.653Z,2.43
2017-12-19T13:31:22.208Z,2.45
2017-12-19T13:33:49.772Z,2.46
2017-12-19T13:36:17.405Z,2.46
2017-12-19T13:38:44.970Z,2.44
2017-12-19T13:41:12.961Z,2.42
2017-12-19T13:43:40.495Z,2.39
2017-12-19T13:46:08.036Z,2.36
2017-12-19T13:48:35.617Z,2.36
2017-12-19T13:51:03.163Z,2.32
2017-12-19T13:53:31.235Z,2.30
2017-12-19T13:55:58.798Z,2.27
2017-12-19T13:58:26.372Z,2.25
2017-12-19T14:00:53.984Z,2.23
2017-12-19T14:03:21.562Z,2.25
2017-12-19T14:05:49.159Z,2.24
2017-12-19T14:08:16.722Z,2.22
2017-12-19T14:10:44.312Z,2.18
2017-12-19T14:13:21.573Z,2.17
2017-12-19T14:15:49.148Z,2.07
2017-12-19T14:18:16.701Z,2.04
2017-12-19T14:20:44.239Z,2.02
2017-12-19T14:23:11.857Z,2.01
2017-12-19T14:25:39.412Z,2.01
2017-12-19T14:28:06.996Z,2.01
2017-12-19T14:30:34.616Z,2.03
2017-12-19T14:33:02.215Z,2.01
2017-12-19T14:35:29.781Z,2.04
2017-12-19T14:37:57.348Z,2.05
2017-12-19T14:40:24.916Z,2.05
2017-12-19T14:42:52.464Z,2.03
2017-12-19T14:45:20.029Z,2.03
2017-12-19T14:47:47.571Z,2.01
2017-12-19T14:50:15.162Z,1.98
2017-12-19T14:52:42.735Z,1.97
2017-12-19T14:55:10.295Z,1.97
2017-12-19T14:57:37.856Z,1.94
2017-12-19T15:00:05.465Z,1.93
2017-12-19T15:02:33.051Z,1.94
2017-12-19T15:05:00.632Z,1.93
2017-12-19T15:07:28.486Z,1.91
2017-12-19T15:09:56.055Z,1.89
2017-12-19T15:12:23.612Z,1.88
2017-12-19T15:14:51.189Z,1.86
2017-12-19T15:17:18.724Z,1.85
2017-12-19T15:19:46.682Z,1.85
2017-12-19T15:22:14.231Z,1.82
2017-12-19T15:24:41.802Z,1.81
2017-12-19T15:27:09.433Z,1.80
2017-12-19T15:29:37.000Z,1.76
2017-12-19T15:32:04.597Z,1.74
2017-12-19T15:34:32.182Z,1.73
2017-12-19T15:36:59.857Z,1.70
2017-12-19T15:39:27.448Z,1.67
2017-12-19T15:41:55.021Z,1.66
2017-12-19T15:44:22.632Z,1.63
2017-12-19T15:46:50.192Z,1.62
2017-12-19T15:49:17.798Z,1.60
2017-12-19T15:51:45.398Z,1.60
2017-12-19T15:54:13.004Z,1.60
2017-12-19T15:56:40.572Z,1.59
2017-12-19T15:59:08.156Z,1.59
2017-12-19T16:01:35.762Z,1.57
2017-12-19T16:04:03.329Z,1.57
2017-12-19T16:06:31.365Z,1.55
2017-12-19T16:08:58.984Z,1.54
2017-12-19T16:11:26.577Z,1.53
2017-12-19T16:13:54.176Z,1.53
2017-12-19T16:16:21.717Z,1.53
2017-12-19T16:18:49.356Z,1.52
2017-12-19T16:21:16.928Z,1.49
2017-12-19T16:23:44.511Z,1.48
2017-12-19T16:26:12.105Z,1.46
2017-12-19T16:28:39.724Z,1.46
2017-12-19T16:31:07.344Z,1.46
2017-12-19T16:33:34.943Z,1.43
2017-12-19T16:36:02.504Z,1.41
2017-12-19T16:38:30.081Z,1.40
2017-12-19T16:40:57.689Z,1.40
2017-12-19T16:43:25.282Z,1.40
2017-12-19T16:45:52.839Z,1.39
2017-12-19T16:48:20.446Z,1.39
2017-12-19T16:50:48.029Z,1.38
2017-12-19T16:53:15.584Z,1.38
2017-12-19T16:55:43.151Z,1.37
2017-12-19T16:58:10.708Z,1.36
2017-12-19T17:00:38.319Z,1.35
2017-12-19T17:03:05.866Z,1.36
2017-12-19T17:05:33.464Z,1.35
2017-12-19T17:08:01.053Z,1.35
2017-12-19T17:10:28.617Z,1.34
2017-12-19T17:12:56.248Z,1.34
2017-12-19T17:15:23.858Z,1.34
2017-12-19T17:17:51.435Z,1.33
2017-12-19T17:20:19.030Z,1.33
2017-12-19T17:22:46.618Z,1.34
2017-12-19T17:25:14.212Z,1.33
2017-12-19T17:27:41.776Z,1.34
2017-12-19T17:30:09.332Z,1.34
2017-12-19T17:32:36.940Z,1.34
2017-12-19T17:35:04.558Z,1.34
2017-12-19T17:37:32.133Z,1.33
2017-12-19T17:39:59.689Z,1.33
2017-12-19T17:42:27.276Z,1.32
2017-12-19T17:44:54.839Z,1.31
2017-12-19T17:47:22.433Z,1.31
2017-12-19T17:49:50.044Z,1.30
2017-12-19T17:52:17.636Z,1.30
2017-12-19T17:54:45.282Z,1.30
2017-12-19T17:57:12.859Z,1.30
2017-12-19T17:59:40.452Z,1.30
2017-12-19T18:02:08.024Z,1.30
2017-12-19T18:04:35.588Z,1.30
2017-12-19T18:07:03.166Z,1.31
2017-12-19T18:09:30.736Z,1.31
2017-12-19T18:11:58.335Z,1.32
2017-12-19T18:14:25.926Z,1.32
2017-12-19T18:16:53.526Z,1.31
2017-12-19T18:19:21.113Z,1.31
2017-12-19T18:21:48.691Z,1.31
2017-12-19T18:24:16.307Z,1.31
2017-12-19T18:26:43.932Z,1.30
2017-12-19T18:29:11.545Z,1.30
2017-12-19T18:31:39.168Z,1.31
2017-12-19T18:34:06.725Z,1.32
2017-12-19T18:36:34.364Z,1.32
2017-12-19T18:39:01.971Z,1.32
2017-12-19T18:41:29.551Z,1.33
2017-12-19T18:43:57.125Z,1.33
2017-12-19T18:46:24.722Z,1.33
2017-12-19T18:48:52.277Z,1.33
2017-12-19T18:51:19.844Z,1.33
2017-12-19T18:53:47.408Z,1.32
2017-12-19T18:56:14.971Z,1.32
2017-12-19T18:58:42.588Z,1.31
2017-12-19T19:01:10.187Z,1.31
2017-12-19T19:03:37.834Z,1.32
2017-12-19T19:06:05.391Z,1.32
2017-12-19T19:08:32.901Z,1.31
2017-12-19T19:11:00.522Z,1.30
2017-12-19T19:13:28.134Z,1.29
2017-12-19T19:15:55.817Z,1.29
2017-12-19T19:18:23.437Z,1.29
2017-12-19T19:20:51.038Z,1.28
2017-12-19T19:23:18.645Z,1.28
2017-12-19T19:25:46.214Z,1.28
2017-12-19T19:28:13.812Z,1.26
2017-12-19T19:32:41.232Z,1.24
2017-12-19T19:35:14.957Z,1.25
2017-12-19T19:37:50.096Z,1.25
2017-12-19T19:40:23.367Z,1.23
2017-12-19T19:43:01.576Z,1.24
2017-12-19T19:45:34.786Z,1.23
2017-12-19T19:50:46.079Z,1.22
2017-12-19T19:53:25.626Z,1.23
2017-12-19T19:55:57.580Z,1.23
2017-12-19T19:58:33.540Z,1.24
2017-12-19T20:01:09.195Z,1.24
2017-12-19T20:03:43.505Z,1.23
2017-12-19T20:06:23.875Z,1.23
2017-12-19T20:09:00.293Z,1.24
2017-12-19T20:11:33.853Z,1.23
2017-12-19T20:14:06.943Z,1.23
2017-12-19T20:16:43.375Z,1.22
2017-12-19T20:19:18.003Z,1.20
2017-12-19T20:24:38.964Z,1.23
2017-12-19T20:27:13.816Z,1.22
2017-12-19T20:29:52.727Z,1.20
2017-12-19T20:32:27.696Z,1.19
2017-12-19T20:35:01.697Z,1.18
2017-12-19T20:37:36.024Z,1.16
2017-12-19T20:40:14.517Z,1.15
2017-12-19T20:42:49.649Z,1.15
2017-12-19T20:45:28.491Z,1.14
2017-12-19T20:48:09.157Z,1.13
2017-12-19T20:50:51.721Z,1.13
2017-12-19T20:53:25.472Z,1.10
2017-12-19T20:56:00.911Z,1.07
2017-12-19T20:58:41.266Z,1.06
2017-12-19T21:01:14.443Z,1.07
2017-12-19T21:03:49.921Z,1.07
2017-12-19T21:06:25.775Z,1.07
2017-12-19T21:08:57.097Z,1.05
2017-12-19T21:11:36.835Z,1.07
2017-12-19T21:14:12.585Z,1.07
2017-12-19T21:16:46.644Z,1.07
2017-12-19T21:19:25.772Z,1.05
2017-12-19T21:22:00.043Z,1.06
2017-12-19T21:24:34.928Z,1.05
2017-12-19T21:29:49.746Z,1.05
2017-12-19T21:32:28.352Z,1.03
2017-12-19T21:35:00.886Z,1.03
2017-12-19T21:37:32.261Z,1.04
2017-12-19T21:40:05.164Z,1.04
2017-12-19T21:42:39.220Z,1.06
2017-12-19T21:45:14.415Z,1.05
2017-12-19T21:47:45.864Z,1.07
2017-12-19T21:50:20.377Z,1.04
2017-12-19T21:52:52.671Z,1.05
2017-12-19T21:55:26.260Z,1.06
2017-12-19T21:57:58.428Z,1.07
2017-12-19T22:00:32.349Z,1.06
2017-12-19T22:03:06.142Z,1.08
2017-12-19T22:05:39.445Z,1.07
2017-12-19T22:08:14.379Z,1.08
2017-12-19T22:10:46.439Z,1.06
2017-12-19T22:13:22.900Z,1.06
2017-12-19T22:16:05.528Z,1.07
2017-12-19T22:18:37.192Z,1.05
2017-12-19T22:21:09.426Z,1.05
2017-12-19T22:23:46.233Z,1.05
2017-12-19T22:26:21.352Z,1.06
2017-12-19T22:28:56.181Z,1.07
2017-12-19T22:31:36.877Z,1.07
2017-12-19T22:34:10.234Z,1.05
2017-12-19T22:36:43.112Z,1.07
2017-12-19T22:39:15.280Z,1.08
2017-12-19T22:41:54.300Z,1.07
2017-12-19T22:44:29.092Z,1.09
2017-12-19T22:47:16.212Z,1.09
2017-12-19T22:49:49.127Z,1.11
2017-12-19T22:52:21.270Z,1.11
2017-12-19T22:54:56.410Z,1.12
2017-12-19T22:57:30.235Z,1.14
2017-12-19T23:00:07.213Z,1.15
2017-12-19T23:02:39.470Z,1.16
2017-12-19T23:05:12.878Z,1.14
2017-12-19T23:07:43.716Z,1.16
2017-12-19T23:10:19.261Z,1.16
2017-12-19T23:12:51.943Z,1.15
2017-12-19T23:15:32.814Z,1.15
2017-12-19T23:18:09.478Z,1.17
2017-12-19T23:20:44.422Z,1.16
2017-12-19T23:23:21.100Z,1.17
2017-12-19T23:25:53.164Z,1.16
2017-12-19T23:28:37.404Z,1.16
2017-12-19T23:31:13.648Z,1.17
2017-12-19T23:33:50.129Z,1.16
2017-12-19T23:36:30.069Z,1.15
2017-12-19T23:39:08.784Z,1.14
2017-12-19T23:41:45.149Z,1.10
2017-12-19T23:44:22.390Z,1.08
2017-12-19T23:46:58.114Z,1.08
2017-12-19T23:49:32.496Z,1.06
2017-12-19T23:52:05.586Z,1.06
2017-12-19T23:54:39.770Z,1.07
2017-12-19T23:57:16.480Z,1.05
